Time;durP1;ratioP1;P1;durP2;ratioP2;P2;SDS_P1;SDS_P2;PMS_P1;PMS_P2;Temp;Humidity;BMP_temperature;BMP_pressure;BME280_temperature;BME280_humidity;BME280_pressure;Samples;Min_cycle;Max_cycle;Signal;HPM_P1;HPM_P2
2023/12/25 00:00:26;;;;;;;;;;;;;;;11.45;100.00;100443.25;5023446;28;19924;-73
2023/12/25 00:02:51;;;;;;;;;;;;;;;11.42;100.00;100432.75;5024476;28;19925;-74
2023/12/25 00:05:17;;;;;;;;;;;;;;;11.49;100.00;100447.38;5026364;28;19920;-72
2023/12/25 00:07:42;;;;;;;;;;;;;;;11.47;100.00;100429.69;5031245;28;19982;-76
2023/12/25 00:10:08;;;;;;;;;;;;;;;11.52;100.00;100459.72;5025503;28;20546;-74
2023/12/25 00:12:33;;;;;;;;;;;;;;;11.58;100.00;100459.13;5023303;28;20407;-74
2023/12/25 00:14:58;;;;;;;;;;;;;;;11.59;100.00;100454.63;5029177;28;19921;-75
2023/12/25 00:17:24;;;;;;;;;;;;;;;11.58;100.00;100466.38;5007007;28;19995;-73
2023/12/25 00:19:49;;;;;;;;;;;;;;;11.60;100.00;100467.09;5023017;28;19989;-75
2023/12/25 00:22:14;;;;;;;;;;;;;;;11.51;100.00;100458.00;5025688;28;19975;-75
2023/12/25 00:24:40;;;;;;;;;;;;;;;11.44;100.00;100432.63;5022103;28;20449;-75
2023/12/25 00:27:06;;;;;;;;;;;;;;;11.34;100.00;100432.59;5008930;28;21569;-76
2023/12/25 00:29:31;;;;;;;;;;;;;;;11.30;100.00;100429.31;5009567;28;19963;-75
2023/12/25 00:31:56;;;;;;;;;;;;;;;11.37;100.00;100430.47;5005074;28;19920;-76
2023/12/25 00:34:21;;;;;;;;;;;;;;;11.37;100.00;100429.66;5006261;28;20422;-74
2023/12/25 00:36:47;;;;;;;;;;;;;;;11.27;100.00;100424.19;5007143;28;19921;-73
2023/12/25 00:39:13;;;;;;;;;;;;;;;11.34;100.00;100424.53;5027406;28;19925;-73
2023/12/25 00:41:38;;;;;;;;;;;;;;;11.27;100.00;100429.56;5031796;28;20345;-75
2023/12/25 00:44:03;;;;;;;;;;;;;;;11.23;100.00;100438.91;5028531;28;19920;-74
2023/12/25 00:46:29;;;;;;;;;;;;;;;11.29;100.00;100441.03;5022265;28;19963;-74
2023/12/25 00:48:54;;;;;;;;;;;;;;;11.30;100.00;100445.44;5023078;28;19931;-75
2023/12/25 00:51:19;;;;;;;;;;;;;;;11.30;100.00;100449.97;5023021;28;20749;-75
2023/12/25 00:53:44;;;;;;;;;;;;;;;11.25;100.00;100456.59;5022546;28;19927;-74
2023/12/25 00:56:09;;;;;;;;;;;;;;;11.30;100.00;100466.09;5022787;28;19964;-74
2023/12/25 00:58:35;;;;;;;;;;;;;;;11.27;100.00;100461.81;5020155;28;20023;-75
2023/12/25 01:01:00;;;;;;;;;;;;;;;11.18;100.00;100466.16;5021034;28;19998;-73
2023/12/25 01:03:26;;;;;;;;;;;;;;;11.12;100.00;100465.84;5025812;28;19948;-74
2023/12/25 01:05:51;;;;;;;;;;;;;;;11.06;100.00;100467.25;5005743;28;19963;-73
2023/12/25 01:08:16;;;;;;;;;;;;;;;11.08;100.00;100467.97;5008076;28;19997;-74
2023/12/25 01:10:41;;;;;;;;;;;;;;;11.05;100.00;100452.09;5021143;28;19982;-73
2023/12/25 01:13:06;;;;;;;;;;;;;;;11.02;100.00;100452.38;5022489;28;20003;-73
2023/12/25 01:15:32;;;;;;;;;;;;;;;11.09;100.00;100458.91;5028351;28;19916;-75
2023/12/25 01:17:57;;;;;;;;;;;;;;;11.08;100.00;100446.47;5023496;28;19960;-74
2023/12/25 01:20:22;;;;;;;;;;;;;;;11.10;100.00;100457.94;5022815;28;20015;-73
2023/12/25 01:22:47;;;;;;;;;;;;;;;11.17;100.00;100458.25;5023280;28;20373;-74
2023/12/25 01:25:13;;;;;;;;;;;;;;;11.14;100.00;100459.34;5028563;28;19920;-74
2023/12/25 01:27:41;;;;;;;;;;;;;;;11.19;100.00;100467.88;5010873;28;19931;-74
2023/12/25 01:30:07;;;;;;;;;;;;;;;11.20;100.00;100477.63;5027831;28;19958;-73
2023/12/25 01:32:32;;;;;;;;;;;;;;;11.29;100.00;100464.41;5041809;28;19916;-73
2023/12/25 01:34:57;;;;;;;;;;;;;;;11.27;100.00;100479.81;5021383;28;19925;-73
2023/12/25 01:37:22;;;;;;;;;;;;;;;11.37;100.00;100478.88;5023608;28;20333;-74
2023/12/25 01:39:48;;;;;;;;;;;;;;;11.41;100.00;100482.13;5027126;28;19932;-73
2023/12/25 01:42:13;;;;;;;;;;;;;;;11.34;100.00;100484.50;5014190;28;19959;-72
2023/12/25 01:44:38;;;;;;;;;;;;;;;11.41;100.00;100484.81;5025377;28;20051;-73
2023/12/25 01:47:03;;;;;;;;;;;;;;;11.45;100.00;100480.03;5007039;28;19926;-73
2023/12/25 01:49:29;;;;;;;;;;;;;;;11.46;100.00;100487.97;5025222;28;19920;-73
2023/12/25 01:51:54;;;;;;;;;;;;;;;11.47;100.00;100486.97;5032292;28;19959;-72
2023/12/25 01:54:19;;;;;;;;;;;;;;;11.54;100.00;100504.28;5009873;28;20007;-76
2023/12/25 01:56:44;;;;;;;;;;;;;;;11.54;100.00;100503.41;5023488;28;20125;-75
2023/12/25 01:59:10;;;;;;;;;;;;;;;11.61;100.00;100512.66;5023772;28;20514;-73
2023/12/25 02:01:35;;;;;;;;;;;;;;;11.59;100.00;100506.56;5023323;28;20734;-73
2023/12/25 02:04:00;;;;;;;;;;;;;;;11.55;100.00;100522.13;5023641;28;19928;-75
2023/12/25 02:06:26;;;;;;;;;;;;;;;11.60;100.00;100502.03;5015391;28;19921;-75
2023/12/25 02:08:51;;;;;;;;;;;;;;;11.60;100.00;100491.28;5027398;28;19924;-74
2023/12/25 02:11:16;;;;;;;;;;;;;;;11.62;100.00;100511.66;5030453;28;19917;-73
2023/12/25 02:13:41;;;;;;;;;;;;;;;11.59;100.00;100513.78;5026066;28;19928;-74
2023/12/25 02:16:07;;;;;;;;;;;;;;;11.64;100.00;100511.56;5025338;28;20397;-73
2023/12/25 02:18:32;;;;;;;;;;;;;;;11.69;100.00;100504.78;5026300;28;19970;-73
2023/12/25 02:20:57;;;;;;;;;;;;;;;11.69;100.00;100509.28;5010206;28;19917;-74
2023/12/25 02:23:23;;;;;;;;;;;;;;;11.69;100.00;100517.34;5020965;28;19936;-73
2023/12/25 02:25:48;;;;;;;;;;;;;;;11.67;100.00;100508.56;5024992;28;19966;-74
2023/12/25 02:28:13;;;;;;;;;;;;;;;11.61;100.00;100517.19;5030226;28;20007;-74
2023/12/25 02:30:38;;;;;;;;;;;;;;;11.64;100.00;100522.31;5023016;28;20515;-73
2023/12/25 02:33:04;;;;;;;;;;;;;;;11.72;100.00;100527.84;5031720;28;20430;-73
2023/12/25 02:35:30;;;;;;;;;;;;;;;11.65;100.00;100516.78;5014245;28;20414;-74
2023/12/25 02:37:55;;;;;;;;;;;;;;;11.71;100.00;100507.31;5033350;28;19943;-72
2023/12/25 02:40:22;;;;;;;;;;;;;;;11.72;100.00;100522.47;5023815;28;19913;-74
2023/12/25 02:42:47;;;;;;;;;;;;;;;11.75;100.00;100529.44;5031432;28;19928;-74
2023/12/25 02:45:13;;;;;;;;;;;;;;;11.78;100.00;100538.06;5006764;28;20406;-73
2023/12/25 02:47:38;;;;;;;;;;;;;;;11.76;100.00;100536.50;5022928;28;20371;-74
2023/12/25 02:50:03;;;;;;;;;;;;;;;11.76;100.00;100528.44;5022444;28;20395;-74
2023/12/25 02:52:28;;;;;;;;;;;;;;;11.79;100.00;100536.22;5043427;28;20482;-74
2023/12/25 02:54:54;;;;;;;;;;;;;;;11.73;100.00;100528.72;5026258;28;20375;-73
2023/12/25 02:57:19;;;;;;;;;;;;;;;11.73;100.00;100524.16;5027727;28;20375;-74
2023/12/25 02:59:44;;;;;;;;;;;;;;;11.74;100.00;100535.78;5032030;28;20396;-75
2023/12/25 03:02:09;;;;;;;;;;;;;;;11.84;100.00;100523.22;5026490;28;19976;-74
2023/12/25 03:04:34;;;;;;;;;;;;;;;11.77;100.00;100530.97;5029938;28;20043;-75
2023/12/25 03:07:00;;;;;;;;;;;;;;;11.77;100.00;100528.28;5023955;28;19921;-74
2023/12/25 03:09:25;;;;;;;;;;;;;;;11.85;100.00;100525.78;5012164;28;20030;-74
2023/12/25 03:11:50;;;;;;;;;;;;;;;11.78;100.00;100539.94;5029035;28;20441;-74
2023/12/25 03:14:15;;;;;;;;;;;;;;;11.82;100.00;100528.75;5030607;28;20019;-73
2023/12/25 03:16:41;;;;;;;;;;;;;;;11.77;100.00;100527.47;5011915;28;20367;-73
2023/12/25 03:19:06;;;;;;;;;;;;;;;11.81;100.00;100535.13;5027332;28;19952;-73
2023/12/25 03:21:31;;;;;;;;;;;;;;;11.82;100.00;100531.44;5026684;28;20395;-75
2023/12/25 03:23:56;;;;;;;;;;;;;;;11.89;100.00;100536.28;5026902;28;20458;-74
2023/12/25 03:26:21;;;;;;;;;;;;;;;11.88;100.00;100553.41;5030919;28;20413;-73
2023/12/25 03:28:47;;;;;;;;;;;;;;;11.92;100.00;100561.06;5034359;28;19923;-74
2023/12/25 03:31:12;;;;;;;;;;;;;;;11.93;100.00;100557.38;5029716;28;19956;-74
2023/12/25 03:33:37;;;;;;;;;;;;;;;11.89;100.00;100555.13;5029568;28;20387;-76
2023/12/25 03:36:03;;;;;;;;;;;;;;;11.89;100.00;100563.19;5013981;28;20305;-73
2023/12/25 03:38:28;;;;;;;;;;;;;;;11.90;100.00;100560.34;5027686;28;19935;-75
2023/12/25 03:40:53;;;;;;;;;;;;;;;11.92;100.00;100555.69;5032288;28;19921;-75
2023/12/25 03:43:19;;;;;;;;;;;;;;;11.87;100.00;100568.69;5036382;28;19924;-73
2023/12/25 03:45:44;;;;;;;;;;;;;;;11.88;100.00;100570.38;5032982;28;19935;-75
2023/12/25 03:48:09;;;;;;;;;;;;;;;11.85;100.00;100559.88;5032482;28;19924;-75
2023/12/25 03:50:35;;;;;;;;;;;;;;;11.87;100.00;100571.38;5027886;28;20371;-75
2023/12/25 03:53:00;;;;;;;;;;;;;;;11.93;100.00;100578.03;5030746;28;19920;-75
2023/12/25 03:55:25;;;;;;;;;;;;;;;11.92;100.00;100584.44;5033102;28;20011;-75
2023/12/25 03:57:50;;;;;;;;;;;;;;;11.88;100.00;100566.84;5027885;28;19919;-74
2023/12/25 04:00:15;;;;;;;;;;;;;;;11.90;100.00;100560.34;5031599;28;19967;-75
2023/12/25 04:02:41;;;;;;;;;;;;;;;11.92;100.00;100558.38;5024827;28;20004;-72
2023/12/25 04:05:06;;;;;;;;;;;;;;;11.89;100.00;100557.81;5034466;28;19927;-74
2023/12/25 04:07:31;;;;;;;;;;;;;;;11.84;100.00;100572.50;5030465;28;20478;-74
2023/12/25 04:09:57;;;;;;;;;;;;;;;11.88;100.00;100572.25;5027569;28;20652;-74
2023/12/25 04:12:22;;;;;;;;;;;;;;;11.85;100.00;100571.53;5035193;28;20288;-74
2023/12/25 04:14:47;;;;;;;;;;;;;;;11.79;100.00;100549.66;5017581;28;19952;-73
2023/12/25 04:17:12;;;;;;;;;;;;;;;11.79;100.00;100555.91;5028992;28;20047;-73
2023/12/25 04:19:38;;;;;;;;;;;;;;;11.77;100.00;100555.19;5038884;28;20015;-73
2023/12/25 04:22:03;;;;;;;;;;;;;;;11.77;100.00;100563.25;5030901;28;19928;-74
2023/12/25 04:24:28;;;;;;;;;;;;;;;11.79;100.00;100547.84;5030698;28;19975;-73
2023/12/25 04:26:53;;;;;;;;;;;;;;;11.88;100.00;100550.72;5030314;28;20324;-75
2023/12/25 04:29:19;;;;;;;;;;;;;;;11.79;100.00;100546.97;5025790;28;20370;-74
2023/12/25 04:31:44;;;;;;;;;;;;;;;11.81;100.00;100542.31;5027230;28;20537;-75
2023/12/25 04:34:09;;;;;;;;;;;;;;;11.75;100.00;100549.09;5030888;28;19924;-75
2023/12/25 04:36:34;;;;;;;;;;;;;;;11.66;100.00;100548.06;5036758;28;20005;-74
2023/12/25 04:38:59;;;;;;;;;;;;;;;11.70;100.00;100548.63;5032715;28;20039;-75
2023/12/25 04:41:25;;;;;;;;;;;;;;;11.75;100.00;100550.94;5030920;28;20311;-74
2023/12/25 04:43:53;;;;;;;;;;;;;;;11.65;100.00;100551.75;5029179;28;20020;-72
2023/12/25 04:46:18;;;;;;;;;;;;;;;11.74;100.00;100549.25;5027571;28;19928;-73
2023/12/25 04:48:43;;;;;;;;;;;;;;;11.68;100.00;100554.16;5025192;28;20124;-74
2023/12/25 04:51:09;;;;;;;;;;;;;;;11.55;100.00;100542.75;5024429;28;20039;-75
2023/12/25 04:53:36;;;;;;;;;;;;;;;11.52;100.00;100549.25;5028371;28;19924;-74
2023/12/25 04:56:01;;;;;;;;;;;;;;;11.40;100.00;100548.50;5026023;28;20321;-74
2023/12/25 04:58:27;;;;;;;;;;;;;;;11.35;100.00;100544.50;5045888;28;19921;-73
2023/12/25 05:00:52;;;;;;;;;;;;;;;11.27;100.00;100547.81;5042976;28;19960;-75
2023/12/25 05:03:19;;;;;;;;;;;;;;;11.19;100.00;100520.78;5022802;28;19966;-74
2023/12/25 05:05:44;;;;;;;;;;;;;;;11.22;100.00;100539.31;5029332;28;20999;-75
2023/12/25 05:08:09;;;;;;;;;;;;;;;11.15;100.00;100533.59;5028863;28;20271;-74
2023/12/25 05:10:34;;;;;;;;;;;;;;;11.12;100.00;100530.34;5023843;28;20132;-74
2023/12/25 05:13:00;;;;;;;;;;;;;;;11.11;100.00;100529.50;5027260;28;19921;-73
2023/12/25 05:15:25;;;;;;;;;;;;;;;11.17;100.00;100533.50;5026280;28;20027;-75
2023/12/25 05:17:50;;;;;;;;;;;;;;;11.11;100.00;100526.81;5024812;28;19925;-73
2023/12/25 05:20:15;;;;;;;;;;;;;;;10.95;100.00;100498.53;5033009;28;19971;-73
2023/12/25 05:22:40;;;;;;;;;;;;;;;11.09;100.00;100528.78;5023103;28;20145;-74
2023/12/25 05:25:06;;;;;;;;;;;;;;;11.12;100.00;100528.53;5033530;28;19924;-74
2023/12/25 05:27:31;;;;;;;;;;;;;;;11.08;100.00;100521.69;5024647;28;20449;-74
2023/12/25 05:29:56;;;;;;;;;;;;;;;11.09;100.00;100526.09;5026472;28;19921;-75
2023/12/25 05:32:21;;;;;;;;;;;;;;;11.03;100.00;100513.16;5025755;28;20007;-74
2023/12/25 05:34:47;;;;;;;;;;;;;;;11.03;100.00;100529.28;5031880;28;19921;-76
2023/12/25 05:37:12;;;;;;;;;;;;;;;10.93;100.00;100534.59;5020291;28;19938;-74
2023/12/25 05:39:37;;;;;;;;;;;;;;;11.04;100.00;100541.75;5030064;28;19913;-73
2023/12/25 05:42:02;;;;;;;;;;;;;;;11.03;100.00;100545.41;5031010;28;20434;-73
2023/12/25 05:44:28;;;;;;;;;;;;;;;10.88;100.00;100543.00;5027372;28;20309;-75
2023/12/25 05:46:53;;;;;;;;;;;;;;;10.88;100.00;100552.91;5019872;28;20385;-74
2023/12/25 05:49:18;;;;;;;;;;;;;;;10.63;100.00;100560.34;5027011;28;20284;-74
2023/12/25 05:51:43;;;;;;;;;;;;;;;10.50;100.00;100558.66;5018788;28;20499;-75
2023/12/25 05:54:08;;;;;;;;;;;;;;;10.38;100.00;100548.03;5025775;28;20389;-73
2023/12/25 05:56:34;;;;;;;;;;;;;;;10.21;100.00;100556.47;5024694;28;19937;-74
2023/12/25 05:58:59;;;;;;;;;;;;;;;10.15;100.00;100553.44;5032419;28;19956;-74
2023/12/25 06:01:25;;;;;;;;;;;;;;;9.98;100.00;100547.63;5022348;28;20015;-73
2023/12/25 06:03:50;;;;;;;;;;;;;;;9.87;100.00;100542.25;5028219;28;19927;-73
2023/12/25 06:06:15;;;;;;;;;;;;;;;9.75;100.00;100544.06;5007693;28;19982;-72
2023/12/25 06:08:40;;;;;;;;;;;;;;;9.72;100.00;100552.34;5029881;28;20007;-71
2023/12/25 06:11:05;;;;;;;;;;;;;;;9.74;100.00;100545.03;5030603;28;19925;-72
2023/12/25 06:13:31;;;;;;;;;;;;;;;9.70;100.00;100547.13;5032596;28;19924;-72
2023/12/25 06:15:56;;;;;;;;;;;;;;;9.64;100.00;100538.72;5033214;28;19921;-72
2023/12/25 06:18:21;;;;;;;;;;;;;;;9.51;100.00;100541.50;5013506;28;19928;-76
2023/12/25 06:20:46;;;;;;;;;;;;;;;9.39;100.00;100536.13;5007542;28;19960;-74
2023/12/25 06:23:12;;;;;;;;;;;;;;;9.34;100.00;100534.78;5044927;28;20287;-74
2023/12/25 06:25:37;;;;;;;;;;;;;;;9.34;100.00;100526.75;5030355;28;20271;-74
2023/12/25 06:28:02;;;;;;;;;;;;;;;9.22;100.00;100525.88;5012029;28;19970;-75
2023/12/25 06:30:27;;;;;;;;;;;;;;;9.15;100.00;100514.75;5027579;28;20002;-74
2023/12/25 06:32:53;;;;;;;;;;;;;;;9.14;100.00;100519.28;5029928;28;19990;-75
2023/12/25 06:35:18;;;;;;;;;;;;;;;9.18;100.00;100503.81;5031319;28;19975;-74
2023/12/25 06:37:43;;;;;;;;;;;;;;;9.14;100.00;100513.06;5029017;28;20363;-74
2023/12/25 06:40:09;;;;;;;;;;;;;;;9.12;100.00;100515.84;5035040;28;19921;-74
2023/12/25 06:42:34;;;;;;;;;;;;;;;9.11;100.00;100505.28;5021141;28;19924;-74
2023/12/25 06:44:59;;;;;;;;;;;;;;;9.10;100.00;100512.44;5031538;28;20456;-75
2023/12/25 06:47:24;;;;;;;;;;;;;;;9.11;100.00;100507.97;5035851;28;20035;-75
2023/12/25 06:49:49;;;;;;;;;;;;;;;9.05;100.00;100509.25;5015585;28;19921;-75
2023/12/25 06:52:15;;;;;;;;;;;;;;;9.04;100.00;100504.88;5010869;28;20322;-75
2023/12/25 06:54:40;;;;;;;;;;;;;;;9.04;100.00;100504.03;5016215;28;20336;-73
2023/12/25 06:57:05;;;;;;;;;;;;;;;9.04;100.00;100515.59;5042300;28;20323;-74
2023/12/25 06:59:30;;;;;;;;;;;;;;;9.10;100.00;100519.63;5032328;28;20374;-74
2023/12/25 07:01:56;;;;;;;;;;;;;;;9.09;100.00;100483.94;5026912;28;20028;-71
2023/12/25 07:04:22;;;;;;;;;;;;;;;9.05;100.00;100524.50;5026327;28;19966;-73
2023/12/25 07:06:47;;;;;;;;;;;;;;;9.10;100.00;100530.34;5026688;28;19921;-73
2023/12/25 07:09:14;;;;;;;;;;;;;;;9.05;100.00;100528.00;5032085;28;20371;-73
2023/12/25 07:11:40;;;;;;;;;;;;;;;9.05;100.00;100536.03;5027567;28;19921;-73
2023/12/25 07:14:05;;;;;;;;;;;;;;;9.02;100.00;100508.66;5026957;28;19928;-74
2023/12/25 07:16:31;;;;;;;;;;;;;;;9.00;100.00;100531.03;5026469;28;20023;-75
2023/12/25 07:18:56;;;;;;;;;;;;;;;9.03;100.00;100531.78;5024903;28;19925;-75
2023/12/25 07:21:21;;;;;;;;;;;;;;;8.94;100.00;100539.53;5025776;28;20008;-75
2023/12/25 07:23:46;;;;;;;;;;;;;;;8.96;100.00;100537.59;5029549;28;20289;-74
2023/12/25 07:26:12;;;;;;;;;;;;;;;8.91;100.00;100537.09;5024901;28;19928;-74
2023/12/25 07:28:37;;;;;;;;;;;;;;;8.93;100.00;100545.03;5029444;28;19978;-75
2023/12/25 07:31:02;;;;;;;;;;;;;;;8.86;100.00;100547.31;5025783;28;20125;-75
2023/12/25 07:33:27;;;;;;;;;;;;;;;8.82;100.00;100556.53;5027137;28;19921;-75
2023/12/25 07:35:53;;;;;;;;;;;;;;;8.87;100.00;100532.97;5023773;28;19971;-74
2023/12/25 07:38:18;;;;;;;;;;;;;;;8.91;100.00;100533.56;5027443;28;19921;-75
2023/12/25 07:40:43;;;;;;;;;;;;;;;8.88;100.00;100525.78;5025564;28;20393;-74
2023/12/25 07:43:10;;;;;;;;;;;;;;;8.87;100.00;100532.97;5025758;28;19958;-75
2023/12/25 07:45:35;;;;;;;;;;;;;;;8.91;100.00;100522.88;5024447;28;20555;-74
2023/12/25 07:48:00;;;;;;;;;;;;;;;8.83;100.00;100531.47;5025678;28;20410;-75
2023/12/25 07:50:25;;;;;;;;;;;;;;;8.79;100.00;100530.84;5027265;28;19975;-76
2023/12/25 07:52:51;;;;;;;;;;;;;;;8.81;100.00;100526.22;5027770;28;19931;-76
2023/12/25 07:55:16;;;;;;;;;;;;;;;8.84;100.00;100528.69;5026402;28;19925;-75
2023/12/25 07:57:41;;;;;;;;;;;;;;;8.91;100.00;100523.69;5029275;28;19917;-75
2023/12/25 08:00:07;;;;;;;;;;;;;;;8.98;100.00;100518.75;5026711;28;20506;-75
2023/12/25 08:02:32;;;;;;;;;;;;;;;8.97;100.00;100527.75;5025907;28;19925;-74
2023/12/25 08:04:57;;;;;;;;;;;;;;;9.05;100.00;100540.56;5025206;28;20007;-75
2023/12/25 08:07:23;;;;;;;;;;;;;;;9.06;100.00;100543.09;5028145;28;19924;-76
2023/12/25 08:09:48;;;;;;;;;;;;;;;9.10;100.00;100541.06;5032230;28;19921;-74
2023/12/25 08:12:14;;;;;;;;;;;;;;;9.07;100.00;100547.50;5034698;28;19955;-74
2023/12/25 08:14:39;;;;;;;;;;;;;;;9.08;100.00;100554.56;5032661;28;19920;-74
2023/12/25 08:17:05;;;;;;;;;;;;;;;9.13;100.00;100578.34;5033018;28;20445;-74
2023/12/25 08:19:30;;;;;;;;;;;;;;;9.18;100.00;100580.66;5029852;28;19928;-74
2023/12/25 08:21:55;;;;;;;;;;;;;;;9.24;100.00;100583.72;5031512;28;20247;-74
2023/12/25 08:24:20;;;;;;;;;;;;;;;9.25;100.00;100588.09;5030488;28;20004;-75
2023/12/25 08:26:45;;;;;;;;;;;;;;;9.23;100.00;100587.34;5028724;28;19925;-74
2023/12/25 08:29:11;;;;;;;;;;;;;;;9.22;100.00;100591.00;5014408;28;19944;-74
2023/12/25 08:31:38;;;;;;;;;;;;;;;9.07;100.00;100574.28;5030387;28;20443;-74
2023/12/25 08:34:03;;;;;;;;;;;;;;;9.32;100.00;100609.06;5036011;28;19925;-75
2023/12/25 08:36:28;;;;;;;;;;;;;;;9.35;100.00;100614.19;5028569;28;20427;-75
2023/12/25 08:38:53;;;;;;;;;;;;;;;9.37;100.00;100610.41;5035579;28;19958;-74
2023/12/25 08:41:18;;;;;;;;;;;;;;;9.35;100.00;100606.16;5029242;28;19963;-74
2023/12/25 08:43:44;;;;;;;;;;;;;;;9.38;100.00;100609.44;5027786;28;19987;-74
2023/12/25 08:46:09;;;;;;;;;;;;;;;9.34;100.00;100617.84;5029093;28;19932;-75
2023/12/25 08:48:34;;;;;;;;;;;;;;;9.41;100.00;100613.69;5031304;28;20066;-74
2023/12/25 08:50:59;;;;;;;;;;;;;;;9.41;100.00;100616.38;5026648;28;19921;-74
2023/12/25 08:53:25;;;;;;;;;;;;;;;9.44;100.00;100624.19;5029154;28;20291;-74
2023/12/25 08:55:50;;;;;;;;;;;;;;;9.45;100.00;100613.38;5013214;28;20291;-76
2023/12/25 08:58:15;;;;;;;;;;;;;;;9.41;100.00;100619.94;5027706;28;19924;-74
2023/12/25 09:00:40;;;;;;;;;;;;;;;9.42;100.00;100628.81;5012243;28;19927;-73
2023/12/25 09:03:06;;;;;;;;;;;;;;;9.35;100.00;100628.44;5030450;28;20170;-74
2023/12/25 09:05:31;;;;;;;;;;;;;;;9.36;100.00;100627.47;5007057;28;20380;-73
2023/12/25 09:07:57;;;;;;;;;;;;;;;9.40;100.00;100630.78;5014660;28;20341;-74
2023/12/25 09:10:22;;;;;;;;;;;;;;;9.31;100.00;100624.28;5022493;28;19927;-74
2023/12/25 09:12:48;;;;;;;;;;;;;;;9.34;100.00;100632.09;5027932;28;19925;-73
2023/12/25 09:15:13;;;;;;;;;;;;;;;9.36;100.00;100622.09;5026567;28;19970;-75
2023/12/25 09:17:40;;;;;;;;;;;;;;;9.38;100.00;100638.91;5030158;28;19969;-74
2023/12/25 09:20:05;;;;;;;;;;;;;;;9.39;100.00;100631.75;5042801;28;20023;-73
2023/12/25 09:22:31;;;;;;;;;;;;;;;9.35;100.00;100632.94;5031175;28;19974;-74
2023/12/25 09:24:56;;;;;;;;;;;;;;;9.36;100.00;100650.75;5030375;28;19920;-75
2023/12/25 09:27:21;;;;;;;;;;;;;;;9.35;100.00;100639.16;5030907;28;19924;-75
2023/12/25 09:29:46;;;;;;;;;;;;;;;9.38;100.00;100640.75;5014573;28;19924;-74
2023/12/25 09:32:11;;;;;;;;;;;;;;;9.39;100.00;100656.72;5023991;28;19921;-74
2023/12/25 09:34:37;;;;;;;;;;;;;;;9.36;100.00;100656.94;5027632;28;19927;-75
2023/12/25 09:37:02;;;;;;;;;;;;;;;9.41;100.00;100664.63;5021965;28;19943;-75
2023/12/25 09:39:28;;;;;;;;;;;;;;;9.38;100.00;100675.59;5012115;28;19924;-75
2023/12/25 09:41:53;;;;;;;;;;;;;;;9.31;100.00;100664.47;5025217;28;19969;-73
2023/12/25 09:44:18;;;;;;;;;;;;;;;9.30;100.00;100655.59;5007391;28;19921;-73
2023/12/25 09:46:44;;;;;;;;;;;;;;;9.32;100.00;100662.66;5027052;28;19924;-73
2023/12/25 09:49:09;;;;;;;;;;;;;;;9.33;100.00;100653.66;5025403;28;19936;-73
2023/12/25 09:51:36;;;;;;;;;;;;;;;9.38;100.00;100663.03;5027912;28;19960;-74
2023/12/25 09:54:02;;;;;;;;;;;;;;;9.36;100.00;100648.06;5031433;28;19958;-74
2023/12/25 09:56:27;;;;;;;;;;;;;;;9.44;100.00;100659.03;5029478;28;19928;-73
2023/12/25 09:58:53;;;;;;;;;;;;;;;9.45;100.00;100658.06;5027431;28;19943;-73
2023/12/25 10:01:18;;;;;;;;;;;;;;;9.47;100.00;100650.75;5015786;28;19917;-75
2023/12/25 10:03:44;;;;;;;;;;;;;;;9.55;100.00;100639.44;5021963;28;19921;-75
2023/12/25 10:06:09;;;;;;;;;;;;;;;9.59;100.00;100640.91;5023452;28;19948;-75
2023/12/25 10:08:36;;;;;;;;;;;;;;;9.65;100.00;100636.94;5024028;28;20417;-75
2023/12/25 10:11:02;;;;;;;;;;;;;;;9.67;100.00;100630.47;5025592;28;20009;-75
2023/12/25 10:13:28;;;;;;;;;;;;;;;9.68;100.00;100639.34;5028621;28;20004;-75
2023/12/25 10:15:53;;;;;;;;;;;;;;;9.49;100.00;100619.34;5024882;28;19920;-74
2023/12/25 10:18:19;;;;;;;;;;;;;;;9.65;100.00;100644.97;5027115;28;20279;-74
2023/12/25 10:20:57;;;;;;;;;;;;;;;9.63;100.00;100653.13;5025627;28;19920;-74
2023/12/25 10:23:26;;;;;;;;;;;;;;;9.61;100.00;100663.09;5026460;28;20020;-74
2023/12/25 10:25:52;;;;;;;;;;;;;;;9.63;100.00;100665.69;5027215;28;20023;-74
2023/12/25 10:28:18;;;;;;;;;;;;;;;9.56;100.00;100671.50;5029040;28;19921;-74
2023/12/25 10:30:44;;;;;;;;;;;;;;;9.44;100.00;100641.13;5029395;28;21703;-74
2023/12/25 10:33:10;;;;;;;;;;;;;;;9.56;100.00;100647.38;5026671;28;20154;-73
2023/12/25 10:35:35;;;;;;;;;;;;;;;9.56;100.00;100654.56;5024320;28;19924;-74
2023/12/25 10:38:03;;;;;;;;;;;;;;;9.55;100.00;100669.81;5026771;28;19927;-74
2023/12/25 10:40:31;;;;;;;;;;;;;;;9.55;100.00;100661.75;5026122;28;19920;-74
2023/12/25 10:42:56;;;;;;;;;;;;;;;9.55;100.00;100672.47;5020843;28;19925;-74
2023/12/25 10:45:22;;;;;;;;;;;;;;;9.43;100.00;100662.69;5025484;28;19932;-74
2023/12/25 10:47:48;;;;;;;;;;;;;;;9.42;100.00;100658.28;5024843;28;19999;-74
2023/12/25 10:50:13;;;;;;;;;;;;;;;9.40;100.00;100644.19;5026383;28;19917;-74
2023/12/25 10:52:39;;;;;;;;;;;;;;;9.38;100.00;100638.91;5044962;28;19967;-73
2023/12/25 10:55:04;;;;;;;;;;;;;;;9.42;100.00;100623.44;5026781;28;20023;-74
2023/12/25 10:57:30;;;;;;;;;;;;;;;9.48;100.00;100628.34;5029896;28;19963;-73
2023/12/25 10:59:55;;;;;;;;;;;;;;;9.54;100.00;100638.59;5025272;28;20003;-73
2023/12/25 11:02:20;;;;;;;;;;;;;;;9.62;100.00;100638.00;5023936;28;20294;-74
2023/12/25 11:04:47;;;;;;;;;;;;;;;9.65;100.00;100650.34;5008399;28;19920;-74
2023/12/25 11:07:13;;;;;;;;;;;;;;;9.57;100.00;100651.78;5020775;28;20020;-74
2023/12/25 11:09:38;;;;;;;;;;;;;;;9.58;100.00;100669.56;5024411;28;19924;-74
2023/12/25 11:12:03;;;;;;;;;;;;;;;9.57;100.00;100699.16;5012778;28;19967;-75
2023/12/25 11:14:29;;;;;;;;;;;;;;;9.55;100.00;100698.41;5028001;28;20004;-74
2023/12/25 11:16:55;;;;;;;;;;;;;;;9.60;100.00;100696.25;5025320;28;19925;-74
2023/12/25 11:19:20;;;;;;;;;;;;;;;9.55;100.00;100707.31;5025221;28;19921;-75
2023/12/25 11:21:45;;;;;;;;;;;;;;;9.45;100.00;100715.22;5030863;28;19925;-74
2023/12/25 11:24:11;;;;;;;;;;;;;;;9.43;100.00;100730.53;5029436;28;19921;-73
2023/12/25 11:26:37;;;;;;;;;;;;;;;9.41;100.00;100721.75;5034889;28;19925;-73
2023/12/25 11:29:10;;;;;;;;;;;;;;;9.39;100.00;100712.97;5029014;28;19920;-73
2023/12/25 11:31:43;;;;;;;;;;;;;;;9.41;100.00;100718.22;5029547;28;19932;-73
2023/12/25 11:34:26;;;;;;;;;;;;;;;9.35;100.00;100718.69;5034722;28;20019;-75
2023/12/25 11:36:55;;;;;;;;;;;;;;;9.35;100.00;100711.50;5030096;28;19974;-74
2023/12/25 11:39:22;;;;;;;;;;;;;;;9.35;100.00;100711.50;5030343;28;19920;-74
2023/12/25 11:41:48;;;;;;;;;;;;;;;9.33;100.00;100704.56;5032791;28;19935;-74
2023/12/25 11:44:30;;;;;;;;;;;;;;;9.27;100.00;100693.31;5033499;28;20026;-74
2023/12/25 11:46:57;;;;;;;;;;;;;;;9.20;100.00;100694.75;5024936;28;20391;-73
2023/12/25 11:49:23;;;;;;;;;;;;;;;9.18;100.00;100683.28;5016401;28;20108;-74
2023/12/25 11:51:48;;;;;;;;;;;;;;;9.21;100.00;100674.19;5028907;28;19921;-73
2023/12/25 11:54:13;;;;;;;;;;;;;;;9.28;100.00;100688.81;5033545;28;19960;-73
2023/12/25 11:56:38;;;;;;;;;;;;;;;9.25;100.00;100679.19;5034937;28;19921;-73
2023/12/25 11:59:04;;;;;;;;;;;;;;;9.32;100.00;100684.94;5026312;28;19924;-73
2023/12/25 12:01:29;;;;;;;;;;;;;;;9.31;100.00;100677.84;5026281;28;19920;-73
2023/12/25 12:03:54;;;;;;;;;;;;;;;9.35;100.00;100687.38;5027099;28;19925;-74
2023/12/25 12:06:20;;;;;;;;;;;;;;;9.38;100.00;100678.28;5008380;28;20311;-74
2023/12/25 12:08:45;;;;;;;;;;;;;;;9.39;100.00;100688.88;5022724;28;20047;-75
2023/12/25 12:11:11;;;;;;;;;;;;;;;9.42;100.00;100683.28;5028834;28;19936;-74
2023/12/25 12:13:36;;;;;;;;;;;;;;;9.46;100.00;100686.56;5025635;28;21399;-75
2023/12/25 12:16:02;;;;;;;;;;;;;;;9.45;100.00;100672.31;5028774;28;20279;-75
2023/12/25 12:18:27;;;;;;;;;;;;;;;9.48;100.00;100681.09;5027994;28;20391;-74
2023/12/25 12:20:53;;;;;;;;;;;;;;;9.49;100.00;100672.94;5027983;28;19920;-74
2023/12/25 12:23:19;;;;;;;;;;;;;;;9.47;100.00;100680.25;5027690;28;20435;-74